sensor_id;sensor_type;location;lat;lon;timestamp;temperature;humidity
19281;DHT22;9774;52.034;5.342;2023-08-06T00:02:26;20.00;67.10
19281;DHT22;9774;52.034;5.342;2023-08-06T00:04:53;20.00;67.00
19281;DHT22;9774;52.034;5.342;2023-08-06T00:07:20;20.00;67.10
19281;DHT22;9774;52.034;5.342;2023-08-06T00:09:48;20.00;67.10
19281;DHT22;9774;52.034;5.342;2023-08-06T00:12:15;20.00;67.10
19281;DHT22;9774;52.034;5.342;2023-08-06T00:14:42;20.00;67.00
19281;DHT22;9774;52.034;5.342;2023-08-06T00:17:09;20.00;67.10
19281;DHT22;9774;52.034;5.342;2023-08-06T00:19:36;20.00;67.20
19281;DHT22;9774;52.034;5.342;2023-08-06T00:22:03;20.00;67.20
19281;DHT22;9774;52.034;5.342;2023-08-06T00:24:30;20.00;67.20
19281;DHT22;9774;52.034;5.342;2023-08-06T00:26:59;20.00;67.20
19281;DHT22;9774;52.034;5.342;2023-08-06T00:29:26;20.00;67.30
19281;DHT22;9774;52.034;5.342;2023-08-06T00:31:53;20.00;67.20
19281;DHT22;9774;52.034;5.342;2023-08-06T00:34:19;20.00;67.30
19281;DHT22;9774;52.034;5.342;2023-08-06T00:36:46;20.00;67.30
19281;DHT22;9774;52.034;5.342;2023-08-06T00:39:13;20.00;67.30
19281;DHT22;9774;52.034;5.342;2023-08-06T00:41:40;20.00;67.30
19281;DHT22;9774;52.034;5.342;2023-08-06T00:44:09;20.00;67.30
19281;DHT22;9774;52.034;5.342;2023-08-06T00:46:36;20.00;67.40
19281;DHT22;9774;52.034;5.342;2023-08-06T00:49:04;20.00;67.40
19281;DHT22;9774;52.034;5.342;2023-08-06T00:51:32;20.00;67.50
19281;DHT22;9774;52.034;5.342;2023-08-06T00:54:01;20.00;67.40
19281;DHT22;9774;52.034;5.342;2023-08-06T00:56:28;20.00;67.40
19281;DHT22;9774;52.034;5.342;2023-08-06T00:58:56;20.00;67.40
19281;DHT22;9774;52.034;5.342;2023-08-06T01:01:24;20.00;67.40
19281;DHT22;9774;52.034;5.342;2023-08-06T01:03:51;20.00;67.50
19281;DHT22;9774;52.034;5.342;2023-08-06T01:06:27;20.00;67.50
19281;DHT22;9774;52.034;5.342;2023-08-06T01:09:07;20.00;67.60
19281;DHT22;9774;52.034;5.342;2023-08-06T01:11:54;20.00;67.50
19281;DHT22;9774;52.034;5.342;2023-08-06T01:14:42;20.00;67.50
19281;DHT22;9774;52.034;5.342;2023-08-06T01:17:19;20.00;67.50
19281;DHT22;9774;52.034;5.342;2023-08-06T01:19:46;20.00;67.40
19281;DHT22;9774;52.034;5.342;2023-08-06T01:22:15;20.00;67.40
19281;DHT22;9774;52.034;5.342;2023-08-06T01:24:46;20.00;67.40
19281;DHT22;9774;52.034;5.342;2023-08-06T01:27:23;20.00;67.40
19281;DHT22;9774;52.034;5.342;2023-08-06T01:30:01;20.00;67.50
19281;DHT22;9774;52.034;5.342;2023-08-06T01:32:33;20.00;67.50
19281;DHT22;9774;52.034;5.342;2023-08-06T01:35:02;20.00;67.40
19281;DHT22;9774;52.034;5.342;2023-08-06T01:37:32;20.00;68.10
19281;DHT22;9774;52.034;5.342;2023-08-06T01:40:00;20.00;67.50
19281;DHT22;9774;52.034;5.342;2023-08-06T01:42:27;20.00;67.50
19281;DHT22;9774;52.034;5.342;2023-08-06T01:44:54;20.00;67.50
19281;DHT22;9774;52.034;5.342;2023-08-06T01:47:21;20.00;67.50
19281;DHT22;9774;52.034;5.342;2023-08-06T01:49:48;20.00;67.50
19281;DHT22;9774;52.034;5.342;2023-08-06T01:52:16;20.00;67.50
19281;DHT22;9774;52.034;5.342;2023-08-06T01:54:45;20.00;67.50
19281;DHT22;9774;52.034;5.342;2023-08-06T01:57:12;20.00;67.50
19281;DHT22;9774;52.034;5.342;2023-08-06T01:59:39;20.00;67.50
19281;DHT22;9774;52.034;5.342;2023-08-06T02:02:06;20.00;67.50
19281;DHT22;9774;52.034;5.342;2023-08-06T02:04:33;20.00;67.60
19281;DHT22;9774;52.034;5.342;2023-08-06T02:07:00;20.00;67.60
19281;DHT22;9774;52.034;5.342;2023-08-06T02:09:26;20.00;67.60
19281;DHT22;9774;52.034;5.342;2023-08-06T02:11:55;20.00;67.60
19281;DHT22;9774;52.034;5.342;2023-08-06T02:14:22;20.00;67.60
19281;DHT22;9774;52.034;5.342;2023-08-06T02:16:49;20.00;67.60
19281;DHT22;9774;52.034;5.342;2023-08-06T02:19:16;20.00;67.60
19281;DHT22;9774;52.034;5.342;2023-08-06T02:21:43;20.00;67.70
19281;DHT22;9774;52.034;5.342;2023-08-06T02:24:10;20.00;67.70
19281;DHT22;9774;52.034;5.342;2023-08-06T02:26:37;20.00;67.70
19281;DHT22;9774;52.034;5.342;2023-08-06T02:29:05;20.00;67.80
19281;DHT22;9774;52.034;5.342;2023-08-06T02:31:32;20.00;67.80
19281;DHT22;9774;52.034;5.342;2023-08-06T02:33:59;20.00;67.70
19281;DHT22;9774;52.034;5.342;2023-08-06T02:36:26;20.00;67.70
19281;DHT22;9774;52.034;5.342;2023-08-06T02:38:54;20.00;67.70
19281;DHT22;9774;52.034;5.342;2023-08-06T02:41:21;20.00;67.80
19281;DHT22;9774;52.034;5.342;2023-08-06T02:43:48;20.00;67.80
19281;DHT22;9774;52.034;5.342;2023-08-06T02:46:16;20.00;67.80
19281;DHT22;9774;52.034;5.342;2023-08-06T02:48:43;20.00;67.90
19281;DHT22;9774;52.034;5.342;2023-08-06T02:51:10;20.00;67.80
19281;DHT22;9774;52.034;5.342;2023-08-06T02:53:37;20.00;67.90
19281;DHT22;9774;52.034;5.342;2023-08-06T02:56:04;19.90;67.80
19281;DHT22;9774;52.034;5.342;2023-08-06T02:58:31;19.90;67.90
19281;DHT22;9774;52.034;5.342;2023-08-06T03:01:02;20.00;68.00
19281;DHT22;9774;52.034;5.342;2023-08-06T03:03:31;19.90;68.00
19281;DHT22;9774;52.034;5.342;2023-08-06T03:05:58;19.90;68.00
19281;DHT22;9774;52.034;5.342;2023-08-06T03:08:26;20.00;68.10
19281;DHT22;9774;52.034;5.342;2023-08-06T03:10:53;20.00;68.10
19281;DHT22;9774;52.034;5.342;2023-08-06T03:13:20;20.00;68.10
19281;DHT22;9774;52.034;5.342;2023-08-06T03:15:53;20.00;68.10
19281;DHT22;9774;52.034;5.342;2023-08-06T03:18:20;20.00;68.20
19281;DHT22;9774;52.034;5.342;2023-08-06T03:20:49;20.00;68.10
19281;DHT22;9774;52.034;5.342;2023-08-06T03:23:16;20.00;68.20
19281;DHT22;9774;52.034;5.342;2023-08-06T03:25:43;20.00;68.10
19281;DHT22;9774;52.034;5.342;2023-08-06T03:28:10;20.00;68.20
19281;DHT22;9774;52.034;5.342;2023-08-06T03:30:38;20.00;68.20
19281;DHT22;9774;52.034;5.342;2023-08-06T03:33:05;20.00;68.40
19281;DHT22;9774;52.034;5.342;2023-08-06T03:35:31;20.00;68.20
19281;DHT22;9774;52.034;5.342;2023-08-06T03:38:00;20.00;68.20
19281;DHT22;9774;52.034;5.342;2023-08-06T03:40:27;20.00;68.20
19281;DHT22;9774;52.034;5.342;2023-08-06T03:42:54;20.00;68.20
19281;DHT22;9774;52.034;5.342;2023-08-06T03:45:21;20.00;68.20
19281;DHT22;9774;52.034;5.342;2023-08-06T03:47:47;20.00;68.20
19281;DHT22;9774;52.034;5.342;2023-08-06T03:50:14;20.00;68.30
19281;DHT22;9774;52.034;5.342;2023-08-06T03:52:41;20.00;68.30
19281;DHT22;9774;52.034;5.342;2023-08-06T03:55:10;20.00;68.30
19281;DHT22;9774;52.034;5.342;2023-08-06T03:57:37;20.00;68.30
19281;DHT22;9774;52.034;5.342;2023-08-06T04:00:04;20.00;68.30
19281;DHT22;9774;52.034;5.342;2023-08-06T04:02:32;20.00;68.30
19281;DHT22;9774;52.034;5.342;2023-08-06T04:05:00;20.00;68.30
19281;DHT22;9774;52.034;5.342;2023-08-06T04:07:28;20.00;68.30
19281;DHT22;9774;52.034;5.342;2023-08-06T04:09:56;20.00;68.30
19281;DHT22;9774;52.034;5.342;2023-08-06T04:12:26;20.00;68.30
19281;DHT22;9774;52.034;5.342;2023-08-06T04:14:54;20.00;68.30
19281;DHT22;9774;52.034;5.342;2023-08-06T04:17:22;20.00;68.30
19281;DHT22;9774;52.034;5.342;2023-08-06T04:19:51;20.00;68.30
19281;DHT22;9774;52.034;5.342;2023-08-06T04:22:19;20.00;68.30
19281;DHT22;9774;52.034;5.342;2023-08-06T04:24:47;20.00;68.30
19281;DHT22;9774;52.034;5.342;2023-08-06T04:27:15;20.00;68.30
19281;DHT22;9774;52.034;5.342;2023-08-06T04:29:44;20.00;68.30
19281;DHT22;9774;52.034;5.342;2023-08-06T04:32:10;20.00;68.30
19281;DHT22;9774;52.034;5.342;2023-08-06T04:34:37;20.00;68.30
19281;DHT22;9774;52.034;5.342;2023-08-06T04:37:05;20.00;68.40
19281;DHT22;9774;52.034;5.342;2023-08-06T04:39:32;20.00;68.40
19281;DHT22;9774;52.034;5.342;2023-08-06T04:41:59;20.00;68.40
19281;DHT22;9774;52.034;5.342;2023-08-06T04:44:26;20.00;68.40
19281;DHT22;9774;52.034;5.342;2023-08-06T04:46:54;20.00;68.50
19281;DHT22;9774;52.034;5.342;2023-08-06T04:49:21;20.00;68.50
19281;DHT22;9774;52.034;5.342;2023-08-06T04:51:48;20.00;68.40
19281;DHT22;9774;52.034;5.342;2023-08-06T04:54:15;20.00;68.40
19281;DHT22;9774;52.034;5.342;2023-08-06T04:56:42;20.00;68.50
19281;DHT22;9774;52.034;5.342;2023-08-06T04:59:09;20.00;68.50
19281;DHT22;9774;52.034;5.342;2023-08-06T05:01:36;20.00;68.60
19281;DHT22;9774;52.034;5.342;2023-08-06T05:04:04;20.00;68.50
19281;DHT22;9774;52.034;5.342;2023-08-06T05:06:31;20.00;68.60
19281;DHT22;9774;52.034;5.342;2023-08-06T05:08:58;20.00;68.50
19281;DHT22;9774;52.034;5.342;2023-08-06T05:11:25;20.00;68.50
19281;DHT22;9774;52.034;5.342;2023-08-06T05:13:52;20.00;68.60
19281;DHT22;9774;52.034;5.342;2023-08-06T05:16:19;20.00;68.50
19281;DHT22;9774;52.034;5.342;2023-08-06T05:18:46;20.00;68.50
19281;DHT22;9774;52.034;5.342;2023-08-06T05:21:14;20.00;68.50
19281;DHT22;9774;52.034;5.342;2023-08-06T05:23:41;20.00;68.60
19281;DHT22;9774;52.034;5.342;2023-08-06T05:26:09;20.00;68.60
19281;DHT22;9774;52.034;5.342;2023-08-06T05:28:35;20.00;68.60
19281;DHT22;9774;52.034;5.342;2023-08-06T05:31:05;20.00;68.60
19281;DHT22;9774;52.034;5.342;2023-08-06T05:33:32;20.00;68.60
19281;DHT22;9774;52.034;5.342;2023-08-06T05:35:59;20.00;68.60
19281;DHT22;9774;52.034;5.342;2023-08-06T05:38:27;20.00;68.60
19281;DHT22;9774;52.034;5.342;2023-08-06T05:40:55;20.00;68.60
19281;DHT22;9774;52.034;5.342;2023-08-06T05:43:22;20.00;68.60
19281;DHT22;9774;52.034;5.342;2023-08-06T05:45:49;20.00;68.60
19281;DHT22;9774;52.034;5.342;2023-08-06T05:48:17;20.00;68.60
19281;DHT22;9774;52.034;5.342;2023-08-06T05:50:44;20.00;68.60
19281;DHT22;9774;52.034;5.342;2023-08-06T05:53:11;20.00;68.60
19281;DHT22;9774;52.034;5.342;2023-08-06T05:55:40;20.00;68.60
19281;DHT22;9774;52.034;5.342;2023-08-06T05:58:07;20.00;68.70
19281;DHT22;9774;52.034;5.342;2023-08-06T06:00:34;20.00;68.70
19281;DHT22;9774;52.034;5.342;2023-08-06T06:03:01;20.00;68.70
19281;DHT22;9774;52.034;5.342;2023-08-06T06:05:28;20.00;68.70
19281;DHT22;9774;52.034;5.342;2023-08-06T06:07:55;20.10;68.70
19281;DHT22;9774;52.034;5.342;2023-08-06T06:10:22;20.10;68.80
19281;DHT22;9774;52.034;5.342;2023-08-06T06:12:51;20.10;68.80
19281;DHT22;9774;52.034;5.342;2023-08-06T06:15:18;20.00;68.80
19281;DHT22;9774;52.034;5.342;2023-08-06T06:17:45;20.10;68.80
19281;DHT22;9774;52.034;5.342;2023-08-06T06:20:12;20.10;68.90
19281;DHT22;9774;52.034;5.342;2023-08-06T06:22:39;20.10;68.80
19281;DHT22;9774;52.034;5.342;2023-08-06T06:25:07;20.10;68.80
19281;DHT22;9774;52.034;5.342;2023-08-06T06:27:36;20.10;68.70
19281;DHT22;9774;52.034;5.342;2023-08-06T06:30:06;20.10;68.70
19281;DHT22;9774;52.034;5.342;2023-08-06T06:32:34;20.10;68.70
19281;DHT22;9774;52.034;5.342;2023-08-06T06:35:02;20.10;68.70
19281;DHT22;9774;52.034;5.342;2023-08-06T06:37:30;20.10;68.70
19281;DHT22;9774;52.034;5.342;2023-08-06T06:39:57;20.10;68.70
19281;DHT22;9774;52.034;5.342;2023-08-06T06:42:24;20.10;68.70
19281;DHT22;9774;52.034;5.342;2023-08-06T06:44:51;20.10;68.70
19281;DHT22;9774;52.034;5.342;2023-08-06T06:47:20;20.10;68.70
19281;DHT22;9774;52.034;5.342;2023-08-06T06:49:48;20.10;68.80
19281;DHT22;9774;52.034;5.342;2023-08-06T06:52:15;20.10;68.70
19281;DHT22;9774;52.034;5.342;2023-08-06T06:54:43;20.10;68.80
19281;DHT22;9774;52.034;5.342;2023-08-06T06:57:10;20.10;68.80
19281;DHT22;9774;52.034;5.342;2023-08-06T06:59:37;20.00;68.90
19281;DHT22;9774;52.034;5.342;2023-08-06T07:02:05;20.00;69.00
19281;DHT22;9774;52.034;5.342;2023-08-06T07:04:34;20.10;69.00
19281;DHT22;9774;52.034;5.342;2023-08-06T07:07:01;20.10;69.00
19281;DHT22;9774;52.034;5.342;2023-08-06T07:09:28;20.10;68.90
19281;DHT22;9774;52.034;5.342;2023-08-06T07:11:55;20.10;69.60
19281;DHT22;9774;52.034;5.342;2023-08-06T07:14:24;20.10;68.90
19281;DHT22;9774;52.034;5.342;2023-08-06T07:16:52;20.10;68.90
19281;DHT22;9774;52.034;5.342;2023-08-06T07:19:19;20.10;68.80
19281;DHT22;9774;52.034;5.342;2023-08-06T07:21:48;20.10;68.80
19281;DHT22;9774;52.034;5.342;2023-08-06T07:24:15;20.10;68.70
19281;DHT22;9774;52.034;5.342;2023-08-06T07:26:42;20.10;68.60
19281;DHT22;9774;52.034;5.342;2023-08-06T07:29:09;20.10;68.50
19281;DHT22;9774;52.034;5.342;2023-08-06T07:31:36;20.00;68.30
19281;DHT22;9774;52.034;5.342;2023-08-06T07:34:03;20.00;68.20
19281;DHT22;9774;52.034;5.342;2023-08-06T07:36:30;20.00;68.30
19281;DHT22;9774;52.034;5.342;2023-08-06T07:38:59;19.90;68.20
19281;DHT22;9774;52.034;5.342;2023-08-06T07:41:26;19.90;68.30
19281;DHT22;9774;52.034;5.342;2023-08-06T07:43:53;19.80;68.20
19281;DHT22;9774;52.034;5.342;2023-08-06T07:46:20;19.80;68.30
19281;DHT22;9774;52.034;5.342;2023-08-06T07:48:46;19.80;68.30
19281;DHT22;9774;52.034;5.342;2023-08-06T07:51:13;19.70;68.20
19281;DHT22;9774;52.034;5.342;2023-08-06T07:53:40;19.80;68.40
19281;DHT22;9774;52.034;5.342;2023-08-06T07:56:09;19.70;68.30
19281;DHT22;9774;52.034;5.342;2023-08-06T07:58:36;19.70;68.10
19281;DHT22;9774;52.034;5.342;2023-08-06T08:01:03;19.60;68.00
19281;DHT22;9774;52.034;5.342;2023-08-06T08:03:29;19.60;68.00
19281;DHT22;9774;52.034;5.342;2023-08-06T08:05:56;19.50;68.00
19281;DHT22;9774;52.034;5.342;2023-08-06T08:08:24;19.40;68.00
19281;DHT22;9774;52.034;5.342;2023-08-06T08:10:51;19.40;68.10
19281;DHT22;9774;52.034;5.342;2023-08-06T08:13:19;19.30;68.00
19281;DHT22;9774;52.034;5.342;2023-08-06T08:15:46;19.30;68.00
19281;DHT22;9774;52.034;5.342;2023-08-06T08:18:13;19.20;67.90
19281;DHT22;9774;52.034;5.342;2023-08-06T08:20:40;19.20;67.90
19281;DHT22;9774;52.034;5.342;2023-08-06T08:23:07;19.10;68.00
19281;DHT22;9774;52.034;5.342;2023-08-06T08:25:34;19.10;68.20
19281;DHT22;9774;52.034;5.342;2023-08-06T08:28:01;19.00;68.10
19281;DHT22;9774;52.034;5.342;2023-08-06T08:30:29;18.90;68.10
19281;DHT22;9774;52.034;5.342;2023-08-06T08:32:56;18.90;68.10
19281;DHT22;9774;52.034;5.342;2023-08-06T08:35:23;18.90;68.10
19281;DHT22;9774;52.034;5.342;2023-08-06T08:37:50;18.80;68.10
19281;DHT22;9774;52.034;5.342;2023-08-06T08:40:17;18.70;68.10
19281;DHT22;9774;52.034;5.342;2023-08-06T08:42:45;18.70;68.90
19281;DHT22;9774;52.034;5.342;2023-08-06T08:45:13;18.60;68.20
19281;DHT22;9774;52.034;5.342;2023-08-06T08:47:42;18.50;68.30
19281;DHT22;9774;52.034;5.342;2023-08-06T08:50:10;18.50;68.50
19281;DHT22;9774;52.034;5.342;2023-08-06T08:52:39;18.50;68.70
19281;DHT22;9774;52.034;5.342;2023-08-06T08:55:08;18.40;68.80
19281;DHT22;9774;52.034;5.342;2023-08-06T08:57:35;18.40;69.00
19281;DHT22;9774;52.034;5.342;2023-08-06T09:00:02;18.40;69.10
19281;DHT22;9774;52.034;5.342;2023-08-06T09:02:31;18.40;69.40
19281;DHT22;9774;52.034;5.342;2023-08-06T09:05:01;18.40;69.40
19281;DHT22;9774;52.034;5.342;2023-08-06T09:07:34;18.40;69.40
19281;DHT22;9774;52.034;5.342;2023-08-06T09:10:07;18.40;69.60
19281;DHT22;9774;52.034;5.342;2023-08-06T09:12:37;18.30;69.60
19281;DHT22;9774;52.034;5.342;2023-08-06T09:15:05;18.40;69.80
19281;DHT22;9774;52.034;5.342;2023-08-06T09:17:33;18.30;69.80
19281;DHT22;9774;52.034;5.342;2023-08-06T09:20:09;18.40;69.90
19281;DHT22;9774;52.034;5.342;2023-08-06T09:22:37;18.40;70.20
19281;DHT22;9774;52.034;5.342;2023-08-06T09:25:05;18.40;70.10
19281;DHT22;9774;52.034;5.342;2023-08-06T09:27:35;18.40;70.30
19281;DHT22;9774;52.034;5.342;2023-08-06T09:30:03;18.50;70.40
19281;DHT22;9774;52.034;5.342;2023-08-06T09:32:44;18.50;70.50
19281;DHT22;9774;52.034;5.342;2023-08-06T09:35:17;18.50;70.90
19281;DHT22;9774;52.034;5.342;2023-08-06T09:37:46;18.50;70.70
19281;DHT22;9774;52.034;5.342;2023-08-06T09:40:26;18.60;70.70
19281;DHT22;9774;52.034;5.342;2023-08-06T09:42:54;18.60;71.10
19281;DHT22;9774;52.034;5.342;2023-08-06T09:45:22;18.70;70.80
19281;DHT22;9774;52.034;5.342;2023-08-06T09:47:49;18.70;70.80
19281;DHT22;9774;52.034;5.342;2023-08-06T09:50:19;18.80;70.90
19281;DHT22;9774;52.034;5.342;2023-08-06T09:52:47;18.80;71.10
19281;DHT22;9774;52.034;5.342;2023-08-06T09:55:15;18.80;71.00
19281;DHT22;9774;52.034;5.342;2023-08-06T09:57:42;18.80;71.00
19281;DHT22;9774;52.034;5.342;2023-08-06T10:00:11;18.90;71.00
19281;DHT22;9774;52.034;5.342;2023-08-06T10:02:39;18.90;71.00
19281;DHT22;9774;52.034;5.342;2023-08-06T10:05:08;19.00;70.90
19281;DHT22;9774;52.034;5.342;2023-08-06T10:07:37;19.00;70.90
19281;DHT22;9774;52.034;5.342;2023-08-06T10:10:06;19.00;70.90
19281;DHT22;9774;52.034;5.342;2023-08-06T10:12:35;19.10;70.80
19281;DHT22;9774;52.034;5.342;2023-08-06T10:15:09;19.10;70.70
19281;DHT22;9774;52.034;5.342;2023-08-06T10:17:39;19.20;70.80
19281;DHT22;9774;52.034;5.342;2023-08-06T10:20:08;19.20;70.80
19281;DHT22;9774;52.034;5.342;2023-08-06T10:22:42;19.20;70.80
19281;DHT22;9774;52.034;5.342;2023-08-06T10:25:10;19.20;70.90
19281;DHT22;9774;52.034;5.342;2023-08-06T10:27:53;19.30;70.80
19281;DHT22;9774;52.034;5.342;2023-08-06T10:30:25;19.30;70.90
19281;DHT22;9774;52.034;5.342;2023-08-06T10:32:55;19.40;70.80
19281;DHT22;9774;52.034;5.342;2023-08-06T10:35:30;19.40;70.70
19281;DHT22;9774;52.034;5.342;2023-08-06T10:38:02;19.40;70.70
19281;DHT22;9774;52.034;5.342;2023-08-06T10:40:31;19.40;70.60
19281;DHT22;9774;52.034;5.342;2023-08-06T10:42:59;19.50;70.60
19281;DHT22;9774;52.034;5.342;2023-08-06T10:45:26;19.50;70.50
19281;DHT22;9774;52.034;5.342;2023-08-06T10:47:56;19.60;70.40
19281;DHT22;9774;52.034;5.342;2023-08-06T10:50:24;19.60;70.20
19281;DHT22;9774;52.034;5.342;2023-08-06T10:52:51;19.60;70.20
19281;DHT22;9774;52.034;5.342;2023-08-06T10:55:25;19.60;70.20
19281;DHT22;9774;52.034;5.342;2023-08-06T10:57:53;19.60;70.10
19281;DHT22;9774;52.034;5.342;2023-08-06T11:00:21;19.60;70.00
19281;DHT22;9774;52.034;5.342;2023-08-06T11:02:49;19.60;70.00
19281;DHT22;9774;52.034;5.342;2023-08-06T11:05:17;19.60;70.00
19281;DHT22;9774;52.034;5.342;2023-08-06T11:07:45;19.60;70.00
19281;DHT22;9774;52.034;5.342;2023-08-06T11:10:14;19.60;70.00
19281;DHT22;9774;52.034;5.342;2023-08-06T11:12:42;19.70;70.00
19281;DHT22;9774;52.034;5.342;2023-08-06T11:15:10;19.70;69.90
19281;DHT22;9774;52.034;5.342;2023-08-06T11:17:39;19.70;70.00
19281;DHT22;9774;52.034;5.342;2023-08-06T11:20:08;19.70;70.10
19281;DHT22;9774;52.034;5.342;2023-08-06T11:22:36;19.70;70.10
19281;DHT22;9774;52.034;5.342;2023-08-06T11:25:06;19.80;70.20
19281;DHT22;9774;52.034;5.342;2023-08-06T11:27:33;19.80;70.20
19281;DHT22;9774;52.034;5.342;2023-08-06T11:30:02;19.80;70.20
19281;DHT22;9774;52.034;5.342;2023-08-06T11:32:29;19.80;70.30
19281;DHT22;9774;52.034;5.342;2023-08-06T11:34:58;19.90;70.40
19281;DHT22;9774;52.034;5.342;2023-08-06T11:37:25;19.90;70.20
19281;DHT22;9774;52.034;5.342;2023-08-06T11:39:52;19.90;70.20
19281;DHT22;9774;52.034;5.342;2023-08-06T11:42:19;20.00;70.30
19281;DHT22;9774;52.034;5.342;2023-08-06T11:44:46;20.00;70.20
19281;DHT22;9774;52.034;5.342;2023-08-06T11:47:16;20.10;70.10
19281;DHT22;9774;52.034;5.342;2023-08-06T11:49:45;20.10;70.20
19281;DHT22;9774;52.034;5.342;2023-08-06T11:52:17;20.20;70.20
19281;DHT22;9774;52.034;5.342;2023-08-06T11:54:47;20.20;70.00
19281;DHT22;9774;52.034;5.342;2023-08-06T11:57:15;20.20;69.70
19281;DHT22;9774;52.034;5.342;2023-08-06T11:59:43;20.20;69.70
19281;DHT22;9774;52.034;5.342;2023-08-06T12:02:10;20.20;69.70
19281;DHT22;9774;52.034;5.342;2023-08-06T12:05:01;20.20;69.60
19281;DHT22;9774;52.034;5.342;2023-08-06T12:07:30;20.20;69.70
19281;DHT22;9774;52.034;5.342;2023-08-06T12:09:59;20.20;69.60
19281;DHT22;9774;52.034;5.342;2023-08-06T12:12:26;20.20;69.50
19281;DHT22;9774;52.034;5.342;2023-08-06T12:14:54;20.20;69.40
19281;DHT22;9774;52.034;5.342;2023-08-06T12:17:21;20.30;69.50
19281;DHT22;9774;52.034;5.342;2023-08-06T12:19:49;20.20;69.40
19281;DHT22;9774;52.034;5.342;2023-08-06T12:22:17;20.30;69.30
19281;DHT22;9774;52.034;5.342;2023-08-06T12:24:46;20.30;69.30
19281;DHT22;9774;52.034;5.342;2023-08-06T12:27:13;20.20;69.20
19281;DHT22;9774;52.034;5.342;2023-08-06T12:29:41;20.30;69.30
19281;DHT22;9774;52.034;5.342;2023-08-06T12:32:17;20.20;69.10
19281;DHT22;9774;52.034;5.342;2023-08-06T12:34:44;20.20;68.90
19281;DHT22;9774;52.034;5.342;2023-08-06T12:37:12;20.20;68.80
19281;DHT22;9774;52.034;5.342;2023-08-06T12:39:41;20.20;68.70
19281;DHT22;9774;52.034;5.342;2023-08-06T12:42:07;20.20;68.70
19281;DHT22;9774;52.034;5.342;2023-08-06T12:44:35;20.20;68.60
19281;DHT22;9774;52.034;5.342;2023-08-06T12:47:03;20.20;68.60
19281;DHT22;9774;52.034;5.342;2023-08-06T12:49:30;20.20;68.60
19281;DHT22;9774;52.034;5.342;2023-08-06T12:51:58;20.20;68.70
19281;DHT22;9774;52.034;5.342;2023-08-06T12:54:26;20.20;68.80
19281;DHT22;9774;52.034;5.342;2023-08-06T12:56:55;20.20;68.90
19281;DHT22;9774;52.034;5.342;2023-08-06T12:59:22;20.20;68.90
19281;DHT22;9774;52.034;5.342;2023-08-06T13:01:49;20.20;69.00
19281;DHT22;9774;52.034;5.342;2023-08-06T13:04:16;20.20;69.10
19281;DHT22;9774;52.034;5.342;2023-08-06T13:06:43;20.20;69.10
19281;DHT22;9774;52.034;5.342;2023-08-06T13:09:10;20.20;69.10
19281;DHT22;9774;52.034;5.342;2023-08-06T13:11:38;20.20;69.10
19281;DHT22;9774;52.034;5.342;2023-08-06T13:14:09;20.20;69.10
19281;DHT22;9774;52.034;5.342;2023-08-06T13:16:39;20.20;69.20
19281;DHT22;9774;52.034;5.342;2023-08-06T13:19:07;20.30;69.20
19281;DHT22;9774;52.034;5.342;2023-08-06T13:21:59;20.30;69.20
19281;DHT22;9774;52.034;5.342;2023-08-06T13:24:27;20.30;69.90
19281;DHT22;9774;52.034;5.342;2023-08-06T13:26:54;20.30;69.20
19281;DHT22;9774;52.034;5.342;2023-08-06T13:29:23;20.30;69.20
19281;DHT22;9774;52.034;5.342;2023-08-06T13:31:50;20.30;69.30
19281;DHT22;9774;52.034;5.342;2023-08-06T13:34:17;20.30;69.30
19281;DHT22;9774;52.034;5.342;2023-08-06T13:36:45;20.30;69.30
19281;DHT22;9774;52.034;5.342;2023-08-06T13:39:12;20.30;69.20
19281;DHT22;9774;52.034;5.342;2023-08-06T13:41:42;20.30;69.20
19281;DHT22;9774;52.034;5.342;2023-08-06T13:44:09;20.30;69.10
19281;DHT22;9774;52.034;5.342;2023-08-06T13:46:37;20.30;69.10
19281;DHT22;9774;52.034;5.342;2023-08-06T13:49:04;20.30;69.10
19281;DHT22;9774;52.034;5.342;2023-08-06T13:51:31;20.30;69.00
19281;DHT22;9774;52.034;5.342;2023-08-06T13:53:59;20.40;69.20
19281;DHT22;9774;52.034;5.342;2023-08-06T13:56:26;20.30;69.00
19281;DHT22;9774;52.034;5.342;2023-08-06T13:58:55;20.30;69.00
19281;DHT22;9774;52.034;5.342;2023-08-06T14:01:22;20.40;69.10
19281;DHT22;9774;52.034;5.342;2023-08-06T14:03:50;20.30;69.10
19281;DHT22;9774;52.034;5.342;2023-08-06T14:06:17;20.30;69.20
19281;DHT22;9774;52.034;5.342;2023-08-06T14:08:45;20.30;69.30
19281;DHT22;9774;52.034;5.342;2023-08-06T14:11:12;20.30;69.30
19281;DHT22;9774;52.034;5.342;2023-08-06T14:13:39;20.40;69.30
19281;DHT22;9774;52.034;5.342;2023-08-06T14:16:06;20.30;69.30
19281;DHT22;9774;52.034;5.342;2023-08-06T14:18:33;20.40;69.30
19281;DHT22;9774;52.034;5.342;2023-08-06T14:21:04;20.40;69.30
19281;DHT22;9774;52.034;5.342;2023-08-06T14:23:31;20.30;69.20
19281;DHT22;9774;52.034;5.342;2023-08-06T14:25:58;20.30;69.30
19281;DHT22;9774;52.034;5.342;2023-08-06T14:28:26;20.30;69.30
19281;DHT22;9774;52.034;5.342;2023-08-06T14:30:53;20.40;69.40
19281;DHT22;9774;52.034;5.342;2023-08-06T14:33:20;20.30;69.40
19281;DHT22;9774;52.034;5.342;2023-08-06T14:35:47;20.40;69.60
19281;DHT22;9774;52.034;5.342;2023-08-06T14:38:15;20.40;69.50
19281;DHT22;9774;52.034;5.342;2023-08-06T14:40:43;20.40;69.40
19281;DHT22;9774;52.034;5.342;2023-08-06T14:43:10;20.40;69.40
19281;DHT22;9774;52.034;5.342;2023-08-06T14:45:38;20.40;69.40
19281;DHT22;9774;52.034;5.342;2023-08-06T14:48:05;20.40;69.50
19281;DHT22;9774;52.034;5.342;2023-08-06T14:50:32;20.40;69.50
19281;DHT22;9774;52.034;5.342;2023-08-06T14:53:00;20.40;69.40
19281;DHT22;9774;52.034;5.342;2023-08-06T14:55:29;20.40;69.50
19281;DHT22;9774;52.034;5.342;2023-08-06T14:57:56;20.40;69.50
19281;DHT22;9774;52.034;5.342;2023-08-06T15:00:23;20.50;69.60
19281;DHT22;9774;52.034;5.342;2023-08-06T15:02:50;20.50;69.60
19281;DHT22;9774;52.034;5.342;2023-08-06T15:05:17;20.50;69.50
19281;DHT22;9774;52.034;5.342;2023-08-06T15:07:45;20.50;69.40
19281;DHT22;9774;52.034;5.342;2023-08-06T15:10:14;20.50;69.20
19281;DHT22;9774;52.034;5.342;2023-08-06T15:12:43;20.50;69.00
19281;DHT22;9774;52.034;5.342;2023-08-06T15:15:13;20.50;68.90
19281;DHT22;9774;52.034;5.342;2023-08-06T15:17:42;20.40;68.60
19281;DHT22;9774;52.034;5.342;2023-08-06T15:20:10;20.40;68.50
19281;DHT22;9774;52.034;5.342;2023-08-06T15:22:38;20.30;68.40
19281;DHT22;9774;52.034;5.342;2023-08-06T15:25:06;20.20;68.30
19281;DHT22;9774;52.034;5.342;2023-08-06T15:27:34;20.20;68.40
19281;DHT22;9774;52.034;5.342;2023-08-06T15:30:02;20.10;68.40
19281;DHT22;9774;52.034;5.342;2023-08-06T15:32:31;20.10;68.50
19281;DHT22;9774;52.034;5.342;2023-08-06T15:34:58;20.00;68.60
19281;DHT22;9774;52.034;5.342;2023-08-06T15:37:25;20.00;68.60
19281;DHT22;9774;52.034;5.342;2023-08-06T15:39:53;19.90;68.80
19281;DHT22;9774;52.034;5.342;2023-08-06T15:42:21;19.90;69.00
19281;DHT22;9774;52.034;5.342;2023-08-06T15:44:48;19.90;69.10
19281;DHT22;9774;52.034;5.342;2023-08-06T15:47:16;19.80;69.10
19281;DHT22;9774;52.034;5.342;2023-08-06T15:49:43;19.80;69.30
19281;DHT22;9774;52.034;5.342;2023-08-06T15:52:10;19.80;69.30